sensor_id;sensor_type;location;lat;lon;timestamp;temperature;humidity
52125;DHT22;38119;52.710;6.398;2023-01-06T00:02:07;10.40;99.90
52125;DHT22;38119;52.710;6.398;2023-01-06T00:04:33;10.50;99.90
52125;DHT22;38119;52.710;6.398;2023-01-06T00:06:59;10.50;99.90
52125;DHT22;38119;52.710;6.398;2023-01-06T00:09:24;10.50;99.90
52125;DHT22;38119;52.710;6.398;2023-01-06T00:11:50;10.50;99.90
52125;DHT22;38119;52.710;6.398;2023-01-06T00:14:16;10.50;99.90
52125;DHT22;38119;52.710;6.398;2023-01-06T00:16:41;10.50;99.90
52125;DHT22;38119;52.710;6.398;2023-01-06T00:19:09;10.50;99.90
52125;DHT22;38119;52.710;6.398;2023-01-06T00:21:37;10.50;99.90
52125;DHT22;38119;52.710;6.398;2023-01-06T00:24:03;10.50;99.90
52125;DHT22;38119;52.710;6.398;2023-01-06T00:26:29;10.50;99.90
52125;DHT22;38119;52.710;6.398;2023-01-06T00:28:55;10.60;99.90
52125;DHT22;38119;52.710;6.398;2023-01-06T00:31:21;10.60;99.90
52125;DHT22;38119;52.710;6.398;2023-01-06T00:33:47;10.60;99.90
52125;DHT22;38119;52.710;6.398;2023-01-06T00:36:13;10.60;99.90
52125;DHT22;38119;52.710;6.398;2023-01-06T00:38:39;10.60;99.90
52125;DHT22;38119;52.710;6.398;2023-01-06T00:41:08;10.60;99.90
52125;DHT22;38119;52.710;6.398;2023-01-06T00:43:54;10.60;99.90
52125;DHT22;38119;52.710;6.398;2023-01-06T00:46:20;10.60;99.90
52125;DHT22;38119;52.710;6.398;2023-01-06T00:48:45;10.60;99.90
52125;DHT22;38119;52.710;6.398;2023-01-06T00:51:11;10.60;99.90
52125;DHT22;38119;52.710;6.398;2023-01-06T00:53:36;10.60;99.90
52125;DHT22;38119;52.710;6.398;2023-01-06T00:56:02;10.50;99.90
52125;DHT22;38119;52.710;6.398;2023-01-06T00:58:29;10.50;99.90
52125;DHT22;38119;52.710;6.398;2023-01-06T01:00:55;10.50;99.90
52125;DHT22;38119;52.710;6.398;2023-01-06T01:03:20;10.50;99.90
52125;DHT22;38119;52.710;6.398;2023-01-06T01:05:46;10.50;99.90
52125;DHT22;38119;52.710;6.398;2023-01-06T01:08:12;10.50;99.90
52125;DHT22;38119;52.710;6.398;2023-01-06T01:10:37;10.50;99.90
52125;DHT22;38119;52.710;6.398;2023-01-06T01:13:03;10.50;99.90
52125;DHT22;38119;52.710;6.398;2023-01-06T01:15:30;10.40;99.90
52125;DHT22;38119;52.710;6.398;2023-01-06T01:17:55;10.40;99.90
52125;DHT22;38119;52.710;6.398;2023-01-06T01:20:21;10.50;99.90
52125;DHT22;38119;52.710;6.398;2023-01-06T01:22:47;10.50;99.90
52125;DHT22;38119;52.710;6.398;2023-01-06T01:25:12;10.50;99.90
52125;DHT22;38119;52.710;6.398;2023-01-06T01:27:38;10.50;99.90
52125;DHT22;38119;52.710;6.398;2023-01-06T01:30:04;10.50;99.90
52125;DHT22;38119;52.710;6.398;2023-01-06T01:32:30;10.50;99.90
52125;DHT22;38119;52.710;6.398;2023-01-06T01:34:55;10.50;99.90
52125;DHT22;38119;52.710;6.398;2023-01-06T01:37:21;10.50;99.90
52125;DHT22;38119;52.710;6.398;2023-01-06T01:39:46;10.50;99.90
52125;DHT22;38119;52.710;6.398;2023-01-06T01:42:18;10.40;99.90
52125;DHT22;38119;52.710;6.398;2023-01-06T01:45:05;10.50;99.90
52125;DHT22;38119;52.710;6.398;2023-01-06T01:47:50;10.50;99.90
52125;DHT22;38119;52.710;6.398;2023-01-06T01:50:47;10.50;99.90
52125;DHT22;38119;52.710;6.398;2023-01-06T01:53:23;10.50;99.90
52125;DHT22;38119;52.710;6.398;2023-01-06T01:55:51;10.50;99.90
52125;DHT22;38119;52.710;6.398;2023-01-06T01:59:03;10.50;99.90
52125;DHT22;38119;52.710;6.398;2023-01-06T02:01:10;10.40;99.90
52125;DHT22;38119;52.710;6.398;2023-01-06T02:03:38;10.40;99.90
52125;DHT22;38119;52.710;6.398;2023-01-06T02:06:19;10.40;99.90
52125;DHT22;38119;52.710;6.398;2023-01-06T02:09:33;10.40;99.90
52125;DHT22;38119;52.710;6.398;2023-01-06T02:11:39;10.40;99.90
52125;DHT22;38119;52.710;6.398;2023-01-06T02:14:10;10.40;99.90
52125;DHT22;38119;52.710;6.398;2023-01-06T02:39:32;10.50;99.90
52125;DHT22;38119;52.710;6.398;2023-01-06T02:47:14;10.50;99.90
52125;DHT22;38119;52.710;6.398;2023-01-06T02:49:59;10.50;99.90
52125;DHT22;38119;52.710;6.398;2023-01-06T02:52:43;10.50;99.90
52125;DHT22;38119;52.710;6.398;2023-01-06T02:55:37;10.50;99.90
52125;DHT22;38119;52.710;6.398;2023-01-06T02:58:33;10.40;99.90
52125;DHT22;38119;52.710;6.398;2023-01-06T03:01:10;10.40;99.90
52125;DHT22;38119;52.710;6.398;2023-01-06T03:03:41;10.50;99.90
52125;DHT22;38119;52.710;6.398;2023-01-06T03:06:11;10.50;99.90
52125;DHT22;38119;52.710;6.398;2023-01-06T03:08:39;10.50;99.90
52125;DHT22;38119;52.710;6.398;2023-01-06T03:11:05;10.50;99.90
52125;DHT22;38119;52.710;6.398;2023-01-06T03:13:36;10.50;99.90
52125;DHT22;38119;52.710;6.398;2023-01-06T03:16:04;10.50;99.90
52125;DHT22;38119;52.710;6.398;2023-01-06T03:18:31;10.50;99.90
52125;DHT22;38119;52.710;6.398;2023-01-06T03:21:00;10.50;99.90
52125;DHT22;38119;52.710;6.398;2023-01-06T03:23:27;10.50;99.90
52125;DHT22;38119;52.710;6.398;2023-01-06T03:25:52;10.50;99.90
52125;DHT22;38119;52.710;6.398;2023-01-06T03:28:18;10.50;99.90
52125;DHT22;38119;52.710;6.398;2023-01-06T03:33:52;10.50;99.90
52125;DHT22;38119;52.710;6.398;2023-01-06T03:44:39;10.50;99.90
52125;DHT22;38119;52.710;6.398;2023-01-06T03:47:16;10.50;99.90
52125;DHT22;38119;52.710;6.398;2023-01-06T03:49:59;10.40;99.90
52125;DHT22;38119;52.710;6.398;2023-01-06T03:52:30;10.50;99.90
52125;DHT22;38119;52.710;6.398;2023-01-06T03:55:16;10.50;99.90
52125;DHT22;38119;52.710;6.398;2023-01-06T03:57:46;10.50;99.90
52125;DHT22;38119;52.710;6.398;2023-01-06T04:00:22;10.40;99.90
52125;DHT22;38119;52.710;6.398;2023-01-06T04:02:49;10.40;99.90
52125;DHT22;38119;52.710;6.398;2023-01-06T04:05:21;10.50;99.90
52125;DHT22;38119;52.710;6.398;2023-01-06T04:07:47;10.50;99.90
52125;DHT22;38119;52.710;6.398;2023-01-06T04:10:14;10.40;99.90
52125;DHT22;38119;52.710;6.398;2023-01-06T04:12:40;10.40;99.90
52125;DHT22;38119;52.710;6.398;2023-01-06T04:17:34;10.40;99.90
52125;DHT22;38119;52.710;6.398;2023-01-06T04:20:00;10.40;99.90
52125;DHT22;38119;52.710;6.398;2023-01-06T04:22:26;10.40;99.90
52125;DHT22;38119;52.710;6.398;2023-01-06T04:24:52;10.40;99.90
52125;DHT22;38119;52.710;6.398;2023-01-06T04:27:17;10.40;99.90
52125;DHT22;38119;52.710;6.398;2023-01-06T04:29:43;10.40;99.90
52125;DHT22;38119;52.710;6.398;2023-01-06T04:32:08;10.40;99.90
52125;DHT22;38119;52.710;6.398;2023-01-06T04:34:34;10.40;99.90
52125;DHT22;38119;52.710;6.398;2023-01-06T04:36:59;10.40;99.90
52125;DHT22;38119;52.710;6.398;2023-01-06T04:39:25;10.30;99.90
52125;DHT22;38119;52.710;6.398;2023-01-06T04:41:51;10.40;99.90
52125;DHT22;38119;52.710;6.398;2023-01-06T04:44:16;10.40;99.90
52125;DHT22;38119;52.710;6.398;2023-01-06T04:46:42;10.40;99.90
52125;DHT22;38119;52.710;6.398;2023-01-06T04:49:08;10.40;99.90
52125;DHT22;38119;52.710;6.398;2023-01-06T04:51:34;10.40;99.90
52125;DHT22;38119;52.710;6.398;2023-01-06T04:54:00;10.40;99.90
52125;DHT22;38119;52.710;6.398;2023-01-06T04:56:25;10.40;99.90
52125;DHT22;38119;52.710;6.398;2023-01-06T04:58:57;10.40;99.90
52125;DHT22;38119;52.710;6.398;2023-01-06T05:01:23;10.40;99.90
52125;DHT22;38119;52.710;6.398;2023-01-06T05:03:50;10.40;99.90
52125;DHT22;38119;52.710;6.398;2023-01-06T05:06:16;10.40;99.90
52125;DHT22;38119;52.710;6.398;2023-01-06T05:08:43;10.50;99.90
52125;DHT22;38119;52.710;6.398;2023-01-06T05:11:14;10.50;99.90
52125;DHT22;38119;52.710;6.398;2023-01-06T05:13:40;10.50;99.90
52125;DHT22;38119;52.710;6.398;2023-01-06T05:16:22;10.50;99.90
52125;DHT22;38119;52.710;6.398;2023-01-06T05:18:49;10.50;99.90
52125;DHT22;38119;52.710;6.398;2023-01-06T05:21:14;10.50;99.90
52125;DHT22;38119;52.710;6.398;2023-01-06T05:23:40;10.50;99.90
52125;DHT22;38119;52.710;6.398;2023-01-06T05:26:06;10.50;99.90
52125;DHT22;38119;52.710;6.398;2023-01-06T05:28:33;10.50;99.90
52125;DHT22;38119;52.710;6.398;2023-01-06T05:31:02;10.60;99.90
52125;DHT22;38119;52.710;6.398;2023-01-06T05:33:30;10.60;99.90
52125;DHT22;38119;52.710;6.398;2023-01-06T05:36:04;10.50;99.90
52125;DHT22;38119;52.710;6.398;2023-01-06T05:38:30;10.50;99.90
52125;DHT22;38119;52.710;6.398;2023-01-06T05:40:55;10.60;99.90
52125;DHT22;38119;52.710;6.398;2023-01-06T05:43:22;10.60;99.90
52125;DHT22;38119;52.710;6.398;2023-01-06T05:45:48;10.60;99.90
52125;DHT22;38119;52.710;6.398;2023-01-06T05:48:13;10.50;99.90
52125;DHT22;38119;52.710;6.398;2023-01-06T05:50:39;10.50;99.90
52125;DHT22;38119;52.710;6.398;2023-01-06T05:53:05;10.50;99.90
52125;DHT22;38119;52.710;6.398;2023-01-06T05:55:30;10.60;99.90
52125;DHT22;38119;52.710;6.398;2023-01-06T05:57:56;10.60;99.90
52125;DHT22;38119;52.710;6.398;2023-01-06T06:00:22;10.50;99.90
52125;DHT22;38119;52.710;6.398;2023-01-06T06:02:47;10.50;99.90
52125;DHT22;38119;52.710;6.398;2023-01-06T06:05:13;10.50;99.90
52125;DHT22;38119;52.710;6.398;2023-01-06T06:07:38;10.50;99.90
52125;DHT22;38119;52.710;6.398;2023-01-06T06:10:04;10.50;99.90
52125;DHT22;38119;52.710;6.398;2023-01-06T06:12:30;10.50;99.90
52125;DHT22;38119;52.710;6.398;2023-01-06T06:14:56;10.40;99.90
52125;DHT22;38119;52.710;6.398;2023-01-06T06:17:22;10.50;99.90
52125;DHT22;38119;52.710;6.398;2023-01-06T06:19:48;10.50;99.90
52125;DHT22;38119;52.710;6.398;2023-01-06T06:22:14;10.50;99.90
52125;DHT22;38119;52.710;6.398;2023-01-06T06:24:39;10.50;99.90
52125;DHT22;38119;52.710;6.398;2023-01-06T06:27:05;10.40;99.90
52125;DHT22;38119;52.710;6.398;2023-01-06T06:29:30;10.40;99.90
52125;DHT22;38119;52.710;6.398;2023-01-06T06:31:56;10.50;99.90
52125;DHT22;38119;52.710;6.398;2023-01-06T06:34:22;10.40;99.90
52125;DHT22;38119;52.710;6.398;2023-01-06T06:36:47;10.40;99.90
52125;DHT22;38119;52.710;6.398;2023-01-06T06:39:13;10.40;99.90
52125;DHT22;38119;52.710;6.398;2023-01-06T06:41:38;10.30;99.90
52125;DHT22;38119;52.710;6.398;2023-01-06T06:44:04;10.30;99.90
52125;DHT22;38119;52.710;6.398;2023-01-06T06:46:31;10.30;99.90
52125;DHT22;38119;52.710;6.398;2023-01-06T06:48:56;10.30;99.90
52125;DHT22;38119;52.710;6.398;2023-01-06T06:51:22;10.20;99.90
52125;DHT22;38119;52.710;6.398;2023-01-06T06:53:48;10.20;99.90
52125;DHT22;38119;52.710;6.398;2023-01-06T06:56:15;10.20;99.90
52125;DHT22;38119;52.710;6.398;2023-01-06T06:58:41;10.20;99.90
52125;DHT22;38119;52.710;6.398;2023-01-06T07:01:09;10.10;99.90
52125;DHT22;38119;52.710;6.398;2023-01-06T07:03:35;10.10;99.90
52125;DHT22;38119;52.710;6.398;2023-01-06T07:06:01;10.00;99.90
52125;DHT22;38119;52.710;6.398;2023-01-06T07:08:28;10.10;99.90
52125;DHT22;38119;52.710;6.398;2023-01-06T07:10:54;10.10;99.90
52125;DHT22;38119;52.710;6.398;2023-01-06T07:13:19;10.10;99.90
52125;DHT22;38119;52.710;6.398;2023-01-06T07:15:45;10.10;99.90
52125;DHT22;38119;52.710;6.398;2023-01-06T07:18:11;10.10;99.90
52125;DHT22;38119;52.710;6.398;2023-01-06T07:20:37;10.10;99.90
52125;DHT22;38119;52.710;6.398;2023-01-06T07:23:03;10.10;99.90
52125;DHT22;38119;52.710;6.398;2023-01-06T07:25:29;10.10;99.90
52125;DHT22;38119;52.710;6.398;2023-01-06T07:27:56;10.10;99.90
52125;DHT22;38119;52.710;6.398;2023-01-06T07:30:24;10.20;99.90
52125;DHT22;38119;52.710;6.398;2023-01-06T07:32:50;10.20;99.90
52125;DHT22;38119;52.710;6.398;2023-01-06T07:35:16;10.10;99.90
52125;DHT22;38119;52.710;6.398;2023-01-06T07:37:42;10.20;99.90
52125;DHT22;38119;52.710;6.398;2023-01-06T07:40:08;10.20;99.90
52125;DHT22;38119;52.710;6.398;2023-01-06T07:42:34;10.20;99.90
52125;DHT22;38119;52.710;6.398;2023-01-06T07:45:00;10.20;99.90
52125;DHT22;38119;52.710;6.398;2023-01-06T07:47:26;10.20;99.90
52125;DHT22;38119;52.710;6.398;2023-01-06T07:49:51;10.20;99.90
52125;DHT22;38119;52.710;6.398;2023-01-06T07:52:17;10.20;99.90
52125;DHT22;38119;52.710;6.398;2023-01-06T07:54:43;10.20;99.90
52125;DHT22;38119;52.710;6.398;2023-01-06T07:57:08;10.20;99.90
52125;DHT22;38119;52.710;6.398;2023-01-06T07:59:34;10.30;99.90
52125;DHT22;38119;52.710;6.398;2023-01-06T08:01:59;10.30;99.90
52125;DHT22;38119;52.710;6.398;2023-01-06T08:04:25;10.40;99.90
52125;DHT22;38119;52.710;6.398;2023-01-06T08:06:51;10.40;99.90
52125;DHT22;38119;52.710;6.398;2023-01-06T08:09:16;10.40;99.90
52125;DHT22;38119;52.710;6.398;2023-01-06T08:11:42;10.30;99.90
52125;DHT22;38119;52.710;6.398;2023-01-06T08:14:09;10.40;99.90
52125;DHT22;38119;52.710;6.398;2023-01-06T08:16:37;10.40;99.90
52125;DHT22;38119;52.710;6.398;2023-01-06T08:19:03;10.40;99.90
52125;DHT22;38119;52.710;6.398;2023-01-06T08:21:29;10.30;99.90
52125;DHT22;38119;52.710;6.398;2023-01-06T08:23:55;10.30;99.90
52125;DHT22;38119;52.710;6.398;2023-01-06T08:26:21;10.20;99.90
52125;DHT22;38119;52.710;6.398;2023-01-06T08:28:47;10.20;99.90
52125;DHT22;38119;52.710;6.398;2023-01-06T08:31:15;10.00;99.90
52125;DHT22;38119;52.710;6.398;2023-01-06T08:33:41;10.00;99.90
52125;DHT22;38119;52.710;6.398;2023-01-06T08:36:09;9.90;99.90
52125;DHT22;38119;52.710;6.398;2023-01-06T08:38:36;9.80;99.90
52125;DHT22;38119;52.710;6.398;2023-01-06T08:41:02;9.80;99.90
52125;DHT22;38119;52.710;6.398;2023-01-06T08:43:28;9.70;99.90
52125;DHT22;38119;52.710;6.398;2023-01-06T08:45:59;9.70;99.90
52125;DHT22;38119;52.710;6.398;2023-01-06T08:48:25;9.60;99.90
52125;DHT22;38119;52.710;6.398;2023-01-06T08:50:51;9.60;99.90
52125;DHT22;38119;52.710;6.398;2023-01-06T08:53:17;9.60;99.90
52125;DHT22;38119;52.710;6.398;2023-01-06T08:55:42;9.50;99.90
52125;DHT22;38119;52.710;6.398;2023-01-06T08:58:08;9.60;99.90
52125;DHT22;38119;52.710;6.398;2023-01-06T09:00:35;9.50;99.90
52125;DHT22;38119;52.710;6.398;2023-01-06T09:03:02;9.50;99.90
52125;DHT22;38119;52.710;6.398;2023-01-06T09:05:28;9.40;99.90
52125;DHT22;38119;52.710;6.398;2023-01-06T09:07:54;9.40;99.90
52125;DHT22;38119;52.710;6.398;2023-01-06T09:10:19;9.40;99.90
52125;DHT22;38119;52.710;6.398;2023-01-06T09:12:45;9.40;99.90
52125;DHT22;38119;52.710;6.398;2023-01-06T09:15:11;9.40;99.90
52125;DHT22;38119;52.710;6.398;2023-01-06T09:17:37;9.40;99.90
52125;DHT22;38119;52.710;6.398;2023-01-06T09:20:03;9.30;99.90
52125;DHT22;38119;52.710;6.398;2023-01-06T09:22:29;9.30;99.90
52125;DHT22;38119;52.710;6.398;2023-01-06T09:24:55;9.30;99.90
52125;DHT22;38119;52.710;6.398;2023-01-06T09:27:20;9.30;99.90
52125;DHT22;38119;52.710;6.398;2023-01-06T09:29:46;9.30;99.90
52125;DHT22;38119;52.710;6.398;2023-01-06T09:32:12;9.30;99.90
52125;DHT22;38119;52.710;6.398;2023-01-06T09:34:37;9.30;99.90
52125;DHT22;38119;52.710;6.398;2023-01-06T09:37:03;9.30;99.90
52125;DHT22;38119;52.710;6.398;2023-01-06T09:39:29;9.30;99.90
52125;DHT22;38119;52.710;6.398;2023-01-06T09:47:20;9.30;99.90
52125;DHT22;38119;52.710;6.398;2023-01-06T09:49:52;9.30;99.90
52125;DHT22;38119;52.710;6.398;2023-01-06T09:52:50;9.30;99.90
52125;DHT22;38119;52.710;6.398;2023-01-06T09:55:36;9.20;99.90
52125;DHT22;38119;52.710;6.398;2023-01-06T09:58:09;9.20;99.90
52125;DHT22;38119;52.710;6.398;2023-01-06T10:00:51;9.20;99.90
52125;DHT22;38119;52.710;6.398;2023-01-06T10:03:22;9.20;99.90
52125;DHT22;38119;52.710;6.398;2023-01-06T10:23:34;9.40;99.90
52125;DHT22;38119;52.710;6.398;2023-01-06T10:26:28;9.40;99.90
52125;DHT22;38119;52.710;6.398;2023-01-06T10:29:08;9.40;99.90
52125;DHT22;38119;52.710;6.398;2023-01-06T10:31:39;9.40;99.90
52125;DHT22;38119;52.710;6.398;2023-01-06T10:34:21;9.40;99.90
52125;DHT22;38119;52.710;6.398;2023-01-06T10:36:58;9.50;99.90
52125;DHT22;38119;52.710;6.398;2023-01-06T10:39:26;9.50;99.90
52125;DHT22;38119;52.710;6.398;2023-01-06T10:45:15;9.60;99.90
52125;DHT22;38119;52.710;6.398;2023-01-06T10:47:42;9.50;99.90
52125;DHT22;38119;52.710;6.398;2023-01-06T10:50:14;9.60;99.90
52125;DHT22;38119;52.710;6.398;2023-01-06T10:52:41;9.60;99.90
52125;DHT22;38119;52.710;6.398;2023-01-06T10:55:08;9.60;99.90
52125;DHT22;38119;52.710;6.398;2023-01-06T10:57:39;9.60;99.90
52125;DHT22;38119;52.710;6.398;2023-01-06T11:00:26;9.80;99.90
52125;DHT22;38119;52.710;6.398;2023-01-06T11:02:54;9.70;99.90
52125;DHT22;38119;52.710;6.398;2023-01-06T11:05:25;9.70;99.90
52125;DHT22;38119;52.710;6.398;2023-01-06T11:07:57;9.70;99.90
52125;DHT22;38119;52.710;6.398;2023-01-06T11:10:31;9.70;99.90
52125;DHT22;38119;52.710;6.398;2023-01-06T11:12:59;9.80;99.90
52125;DHT22;38119;52.710;6.398;2023-01-06T11:15:34;9.80;99.90
52125;DHT22;38119;52.710;6.398;2023-01-06T11:18:01;9.80;99.90
52125;DHT22;38119;52.710;6.398;2023-01-06T11:20:29;9.80;99.90
52125;DHT22;38119;52.710;6.398;2023-01-06T11:23:10;9.80;99.90
52125;DHT22;38119;52.710;6.398;2023-01-06T11:25:36;9.80;99.90
52125;DHT22;38119;52.710;6.398;2023-01-06T11:28:13;9.90;99.90
52125;DHT22;38119;52.710;6.398;2023-01-06T11:30:49;9.90;99.90
52125;DHT22;38119;52.710;6.398;2023-01-06T11:33:21;9.90;99.90
52125;DHT22;38119;52.710;6.398;2023-01-06T11:35:48;9.90;99.90
52125;DHT22;38119;52.710;6.398;2023-01-06T11:38:16;9.90;99.90
52125;DHT22;38119;52.710;6.398;2023-01-06T11:40:47;9.90;99.90
52125;DHT22;38119;52.710;6.398;2023-01-06T11:43:22;9.90;99.90
52125;DHT22;38119;52.710;6.398;2023-01-06T11:45:55;9.90;99.90
52125;DHT22;38119;52.710;6.398;2023-01-06T11:48:29;9.90;99.90
52125;DHT22;38119;52.710;6.398;2023-01-06T11:50:59;10.00;99.90
52125;DHT22;38119;52.710;6.398;2023-01-06T11:53:25;10.00;99.90
52125;DHT22;38119;52.710;6.398;2023-01-06T11:56:20;10.10;99.90
52125;DHT22;38119;52.710;6.398;2023-01-06T11:59:08;10.00;99.90
52125;DHT22;38119;52.710;6.398;2023-01-06T12:01:39;10.10;99.90
52125;DHT22;38119;52.710;6.398;2023-01-06T12:06:59;10.10;99.90
52125;DHT22;38119;52.710;6.398;2023-01-06T12:09:37;10.10;99.90
52125;DHT22;38119;52.710;6.398;2023-01-06T12:12:05;10.00;99.90
52125;DHT22;38119;52.710;6.398;2023-01-06T12:14:37;10.10;99.90
52125;DHT22;38119;52.710;6.398;2023-01-06T12:24:57;10.10;99.90
52125;DHT22;38119;52.710;6.398;2023-01-06T12:27:38;10.00;99.90
52125;DHT22;38119;52.710;6.398;2023-01-06T12:30:15;10.00;99.90
52125;DHT22;38119;52.710;6.398;2023-01-06T12:32:44;10.10;99.90
52125;DHT22;38119;52.710;6.398;2023-01-06T12:35:16;10.10;99.90
52125;DHT22;38119;52.710;6.398;2023-01-06T12:37:54;10.10;99.90
52125;DHT22;38119;52.710;6.398;2023-01-06T12:40:40;10.20;99.90
52125;DHT22;38119;52.710;6.398;2023-01-06T12:43:18;10.20;99.90
52125;DHT22;38119;52.710;6.398;2023-01-06T12:46:08;10.30;99.90
52125;DHT22;38119;52.710;6.398;2023-01-06T12:51:24;10.30;99.90
52125;DHT22;38119;52.710;6.398;2023-01-06T12:53:58;10.30;99.90
52125;DHT22;38119;52.710;6.398;2023-01-06T12:56:42;10.20;99.90
52125;DHT22;38119;52.710;6.398;2023-01-06T12:59:29;10.20;99.90
52125;DHT22;38119;52.710;6.398;2023-01-06T13:02:19;10.10;99.90
52125;DHT22;38119;52.710;6.398;2023-01-06T13:07:41;10.00;99.90
52125;DHT22;38119;52.710;6.398;2023-01-06T13:10:16;10.00;99.90
52125;DHT22;38119;52.710;6.398;2023-01-06T13:12:56;10.00;99.90
52125;DHT22;38119;52.710;6.398;2023-01-06T13:15:27;10.00;99.90
52125;DHT22;38119;52.710;6.398;2023-01-06T13:18:07;9.90;99.90
52125;DHT22;38119;52.710;6.398;2023-01-06T13:23:27;9.90;99.90
52125;DHT22;38119;52.710;6.398;2023-01-06T13:28:58;9.80;99.90
52125;DHT22;38119;52.710;6.398;2023-01-06T13:37:36;9.70;99.90
52125;DHT22;38119;52.710;6.398;2023-01-06T13:42:38;9.70;99.90
52125;DHT22;38119;52.710;6.398;2023-01-06T13:45:09;9.70;99.90
52125;DHT22;38119;52.710;6.398;2023-01-06T13:47:37;9.70;99.90
52125;DHT22;38119;52.710;6.398;2023-01-06T13:50:04;9.70;99.90
52125;DHT22;38119;52.710;6.398;2023-01-06T13:52:31;9.70;99.90
52125;DHT22;38119;52.710;6.398;2023-01-06T13:55:28;9.60;99.90
52125;DHT22;38119;52.710;6.398;2023-01-06T13:57:54;9.70;99.90
52125;DHT22;38119;52.710;6.398;2023-01-06T14:00:27;9.60;99.90
52125;DHT22;38119;52.710;6.398;2023-01-06T14:02:57;9.60;99.90
52125;DHT22;38119;52.710;6.398;2023-01-06T14:05:47;9.60;99.90
52125;DHT22;38119;52.710;6.398;2023-01-06T14:08:17;9.60;99.90
52125;DHT22;38119;52.710;6.398;2023-01-06T14:10:45;9.60;99.90
52125;DHT22;38119;52.710;6.398;2023-01-06T14:13:37;9.60;99.90
52125;DHT22;38119;52.710;6.398;2023-01-06T14:16:11;9.60;99.90
52125;DHT22;38119;52.710;6.398;2023-01-06T14:23:49;9.60;99.90
52125;DHT22;38119;52.710;6.398;2023-01-06T14:26:15;9.60;99.90
52125;DHT22;38119;52.710;6.398;2023-01-06T14:28:40;9.60;99.90
52125;DHT22;38119;52.710;6.398;2023-01-06T14:33:58;9.50;99.90
52125;DHT22;38119;52.710;6.398;2023-01-06T14:36:28;9.50;99.90
52125;DHT22;38119;52.710;6.398;2023-01-06T14:39:05;9.40;99.90
52125;DHT22;38119;52.710;6.398;2023-01-06T14:41:39;9.40;99.90
52125;DHT22;38119;52.710;6.398;2023-01-06T14:44:14;9.40;99.90
52125;DHT22;38119;52.710;6.398;2023-01-06T14:46:44;9.40;99.90
52125;DHT22;38119;52.710;6.398;2023-01-06T14:49:28;9.40;99.90
52125;DHT22;38119;52.710;6.398;2023-01-06T14:51:57;9.40;99.90
52125;DHT22;38119;52.710;6.398;2023-01-06T14:54:35;9.30;99.90
52125;DHT22;38119;52.710;6.398;2023-01-06T14:57:02;9.30;99.90
52125;DHT22;38119;52.710;6.398;2023-01-06T14:59:30;9.30;99.90
52125;DHT22;38119;52.710;6.398;2023-01-06T15:02:03;9.20;99.90
52125;DHT22;38119;52.710;6.398;2023-01-06T15:04:34;9.20;99.90
52125;DHT22;38119;52.710;6.398;2023-01-06T15:07:18;9.20;99.90
52125;DHT22;38119;52.710;6.398;2023-01-06T15:09:48;9.10;99.90
52125;DHT22;38119;52.710;6.398;2023-01-06T15:12:31;9.10;99.90
52125;DHT22;38119;52.710;6.398;2023-01-06T15:15:27;9.10;99.90
52125;DHT22;38119;52.710;6.398;2023-01-06T15:17:54;9.00;99.90
52125;DHT22;38119;52.710;6.398;2023-01-06T15:20:30;9.00;99.90
52125;DHT22;38119;52.710;6.398;2023-01-06T15:22:57;9.00;99.90
52125;DHT22;38119;52.710;6.398;2023-01-06T15:25:26;9.00;99.90
52125;DHT22;38119;52.710;6.398;2023-01-06T15:27:52;8.90;99.90
52125;DHT22;38119;52.710;6.398;2023-01-06T15:30:21;8.90;99.90
52125;DHT22;38119;52.710;6.398;2023-01-06T15:32:49;8.80;99.90
52125;DHT22;38119;52.710;6.398;2023-01-06T15:35:19;8.80;99.90
52125;DHT22;38119;52.710;6.398;2023-01-06T15:37:46;8.80;99.90
52125;DHT22;38119;52.710;6.398;2023-01-06T15:40:18;8.70;99.90
52125;DHT22;38119;52.710;6.398;2023-01-06T15:42:44;8.70;99.90
52125;DHT22;38119;52.710;6.398;2023-01-06T15:45:29;8.70;99.90
52125;DHT22;38119;52.710;6.398;2023-01-06T15:47:57;8.70;99.90
52125;DHT22;38119;52.710;6.398;2023-01-06T15:50:28;8.60;99.90
52125;DHT22;38119;52.710;6.398;2023-01-06T15:52:57;8.60;99.90
52125;DHT22;38119;52.710;6.398;2023-01-06T15:55:35;8.60;99.90
52125;DHT22;38119;52.710;6.398;2023-01-06T15:58:21;8.50;99.90
52125;DHT22;38119;52.710;6.398;2023-01-06T16:00:59;8.50;99.90
52125;DHT22;38119;52.710;6.398;2023-01-06T16:03:28;8.50;99.90
52125;DHT22;38119;52.710;6.398;2023-01-06T16:06:12;8.50;99.90
52125;DHT22;38119;52.710;6.398;2023-01-06T16:08:39;8.50;99.90
52125;DHT22;38119;52.710;6.398;2023-01-06T16:14:01;8.40;99.90
52125;DHT22;38119;52.710;6.398;2023-01-06T16:16:38;8.40;99.90
52125;DHT22;38119;52.710;6.398;2023-01-06T16:19:18;8.40;99.90
52125;DHT22;38119;52.710;6.398;2023-01-06T16:21:44;8.40;99.90
52125;DHT22;38119;52.710;6.398;2023-01-06T16:24:22;8.40;99.90
52125;DHT22;38119;52.710;6.398;2023-01-06T16:27:08;8.40;99.90
52125;DHT22;38119;52.710;6.398;2023-01-06T16:29:36;8.40;99.90
52125;DHT22;38119;52.710;6.398;2023-01-06T16:32:26;8.30;99.90
52125;DHT22;38119;52.710;6.398;2023-01-06T16:34:54;8.30;99.90
52125;DHT22;38119;52.710;6.398;2023-01-06T16:37:20;8.20;99.90
52125;DHT22;38119;52.710;6.398;2023-01-06T16:39:46;8.30;99.90
52125;DHT22;38119;52.710;6.398;2023-01-06T16:45:03;8.20;99.90
52125;DHT22;38119;52.710;6.398;2023-01-06T16:47:30;8.20;99.90
52125;DHT22;38119;52.710;6.398;2023-01-06T16:49:56;8.10;99.90
52125;DHT22;38119;52.710;6.398;2023-01-06T16:52:23;8.10;99.90
52125;DHT22;38119;52.710;6.398;2023-01-06T16:54:53;8.10;99.90
52125;DHT22;38119;52.710;6.398;2023-01-06T16:57:21;8.10;99.90
52125;DHT22;38119;52.710;6.398;2023-01-06T16:59:46;8.10;99.90
52125;DHT22;38119;52.710;6.398;2023-01-06T17:02:14;8.10;99.90
52125;DHT22;38119;52.710;6.398;2023-01-06T17:04:41;8.10;99.90
52125;DHT22;38119;52.710;6.398;2023-01-06T17:07:13;8.10;99.90
52125;DHT22;38119;52.710;6.398;2023-01-06T17:09:40;8.10;99.90
52125;DHT22;38119;52.710;6.398;2023-01-06T17:12:13;8.10;99.90
52125;DHT22;38119;52.710;6.398;2023-01-06T17:15:02;8.10;99.90
52125;DHT22;38119;52.710;6.398;2023-01-06T17:17:28;8.00;99.90
52125;DHT22;38119;52.710;6.398;2023-01-06T17:19:54;8.10;99.90
52125;DHT22;38119;52.710;6.398;2023-01-06T17:22:28;8.00;99.90
52125;DHT22;38119;52.710;6.398;2023-01-06T17:24:56;8.10;99.90
52125;DHT22;38119;52.710;6.398;2023-01-06T17:27:27;8.00;99.90
52125;DHT22;38119;52.710;6.398;2023-01-06T17:29:54;8.10;99.90
52125;DHT22;38119;52.710;6.398;2023-01-06T17:32:28;8.00;99.90
52125;DHT22;38119;52.710;6.398;2023-01-06T17:34:57;8.10;99.90
52125;DHT22;38119;52.710;6.398;2023-01-06T17:37:25;8.00;99.90
52125;DHT22;38119;52.710;6.398;2023-01-06T17:39:53;8.00;99.90
52125;DHT22;38119;52.710;6.398;2023-01-06T17:42:29;8.00;99.90
52125;DHT22;38119;52.710;6.398;2023-01-06T17:44:58;8.00;99.90
52125;DHT22;38119;52.710;6.398;2023-01-06T17:47:42;8.00;99.90
52125;DHT22;38119;52.710;6.398;2023-01-06T17:52:50;7.90;99.90